TS83 weather

Shell I C Heliport
Houston, Texas, United States

Public forecast

Using degrees Fahrenheit for public forecast. Weather courtesy of forecast.io.

METAR (pilot weather report)

Closest report is William P Hobby Airport, 7.2 nm (13.4 km) ESE. Retrieved 2019/09/22 12:53 UTC (24 minutes ago):

KHOU 221253Z 09004KT 10SM FEW025 SCT250 26/24 A3003 RMK AO2 SLP172 T02610239

TAF (pilot weather forecast)

Closest forecast is William P Hobby Airport, 7.2 nm (13.4 km) ESE. Retrieved 2019/09/22 12:22 UTC (55 minutes ago):

TAF KHOU 221120Z 2212/2312 11005KT P6SM FEW015 FEW250 TEMPO 2214/2216 BKN025 FM221600 14010KT P6SM VCSH SCT025 BKN035 FM222100 15010KT P6SM SCT040 BKN250 FM230200 14006KT P6SM FEW025 SCT250 FM230800 VRB04KT P6SM SCT020 SCT250